createdAt,value
2023-04-24T00:01:48.562Z,3.00
2023-04-24T00:04:17.691Z,3.20
2023-04-24T00:06:45.221Z,2.93
2023-04-24T00:09:12.458Z,3.43
2023-04-24T00:11:39.754Z,3.50
2023-04-24T00:14:07.009Z,3.13
2023-04-24T00:16:34.205Z,3.57
2023-04-24T00:19:01.902Z,3.33
2023-04-24T00:21:29.157Z,3.07
2023-04-24T00:23:56.428Z,3.50
2023-04-24T00:26:24.050Z,2.93
2023-04-24T00:28:52.698Z,3.13
2023-04-24T00:31:20.962Z,3.00
2023-04-24T00:33:48.470Z,3.07
2023-04-24T00:36:16.150Z,3.53
2023-04-24T00:38:43.353Z,3.60
2023-04-24T00:41:10.601Z,3.40
2023-04-24T00:43:38.172Z,3.50
2023-04-24T00:46:05.581Z,3.27
2023-04-24T00:48:33.163Z,3.40
2023-04-24T00:51:00.351Z,3.10
2023-04-24T00:53:27.657Z,3.53
2023-04-24T00:55:55.515Z,3.27
2023-04-24T00:58:25.879Z,3.40
2023-04-24T01:00:54.129Z,3.10
2023-04-24T01:03:23.735Z,3.40
2023-04-24T01:05:51.450Z,3.63
2023-04-24T01:08:18.965Z,3.63
2023-04-24T01:10:47.040Z,3.77
2023-04-24T01:13:14.410Z,3.33
2023-04-24T01:15:44.721Z,3.23
2023-04-24T01:18:12.008Z,3.20
2023-04-24T01:20:41.213Z,3.10
2023-04-24T01:23:08.811Z,3.27
2023-04-24T01:25:36.291Z,3.40
2023-04-24T01:28:03.492Z,3.30
2023-04-24T01:30:32.599Z,3.37
2023-04-24T01:33:01.371Z,3.43
2023-04-24T01:35:28.787Z,3.10
2023-04-24T01:37:56.021Z,3.50
2023-04-24T01:40:23.341Z,3.50
2023-04-24T01:42:50.728Z,3.57
2023-04-24T01:45:17.967Z,3.67
2023-04-24T01:47:45.783Z,3.73
2023-04-24T01:50:13.207Z,3.60
2023-04-24T01:52:40.433Z,3.13
2023-04-24T01:55:08.072Z,3.90
2023-04-24T01:57:35.753Z,3.27
2023-04-24T02:00:05.135Z,3.57
2023-04-24T02:02:52.439Z,3.90
2023-04-24T02:05:19.855Z,3.83
2023-04-24T02:07:47.109Z,3.60
2023-04-24T02:10:14.308Z,3.63
2023-04-24T02:12:44.370Z,3.60
2023-04-24T02:15:11.890Z,4.10
2023-04-24T02:17:39.118Z,4.00
2023-04-24T02:20:07.708Z,3.90
2023-04-24T02:22:34.872Z,4.10
2023-04-24T02:25:03.071Z,4.00
2023-04-24T02:27:30.461Z,3.60
2023-04-24T02:29:57.902Z,3.80
2023-04-24T02:32:25.299Z,4.23
2023-04-24T02:34:52.764Z,3.80
2023-04-24T02:37:19.950Z,3.77
2023-04-24T02:39:48.264Z,4.23
2023-04-24T02:42:16.570Z,3.70
2023-04-24T02:44:43.854Z,4.00
2023-04-24T02:47:11.196Z,3.90
2023-04-24T02:49:38.411Z,4.00
2023-04-24T02:52:06.419Z,4.00
2023-04-24T02:54:33.887Z,4.00
2023-04-24T02:57:02.188Z,3.70
2023-04-24T02:59:29.949Z,3.47
2023-04-24T03:01:57.156Z,4.07
2023-04-24T03:04:24.578Z,3.80
2023-04-24T03:06:54.464Z,4.20
2023-04-24T03:09:21.929Z,4.30
2023-04-24T03:11:50.377Z,3.90
2023-04-24T03:14:18.240Z,3.70
2023-04-24T03:16:45.635Z,3.93
2023-04-24T03:19:13.499Z,3.67
2023-04-24T03:21:53.309Z,3.80
2023-04-24T03:24:21.696Z,4.17
2023-04-24T03:26:51.322Z,4.10
2023-04-24T03:29:33.855Z,3.93
2023-04-24T03:32:01.552Z,3.70
2023-04-24T03:34:29.174Z,3.90
2023-04-24T03:36:57.754Z,4.30
2023-04-24T03:39:26.302Z,4.07
2023-04-24T03:41:56.863Z,3.90
2023-04-24T03:44:31.622Z,4.20
2023-04-24T03:46:59.950Z,4.40
2023-04-24T03:49:27.870Z,4.00
2023-04-24T03:51:56.112Z,3.73
2023-04-24T03:54:26.347Z,3.93
2023-04-24T03:56:55.577Z,3.93
2023-04-24T03:59:23.938Z,4.80
2023-04-24T04:02:05.089Z,3.40
2023-04-24T04:04:33.963Z,3.53
2023-04-24T04:07:03.999Z,3.43
2023-04-24T04:09:32.232Z,4.00
2023-04-24T04:11:59.512Z,3.40
2023-04-24T04:14:26.852Z,3.20
2023-04-24T04:16:54.960Z,3.30
2023-04-24T04:19:22.520Z,3.60
2023-04-24T04:21:53.953Z,3.03
2023-04-24T04:24:33.995Z,4.20
2023-04-24T04:27:02.397Z,2.93
2023-04-24T04:29:33.755Z,3.20
2023-04-24T04:32:02.467Z,2.63
2023-04-24T04:34:30.704Z,1.93
2023-04-24T04:37:00.499Z,2.53
2023-04-24T04:39:51.279Z,1.70
2023-04-24T04:42:22.046Z,1.70
2023-04-24T04:44:51.334Z,2.10
2023-04-24T04:47:24.326Z,2.13
2023-04-24T04:49:52.922Z,2.10
2023-04-24T04:52:26.172Z,2.43
2023-04-24T04:54:59.556Z,2.50
2023-04-24T04:57:38.106Z,2.20
2023-04-24T05:00:08.124Z,2.10
2023-04-24T05:02:45.604Z,2.00
2023-04-24T05:05:13.251Z,1.57
2023-04-24T05:07:40.651Z,1.60
2023-04-24T05:10:08.293Z,1.70
2023-04-24T05:12:35.747Z,1.87
2023-04-24T05:15:04.791Z,1.50
2023-04-24T05:17:32.377Z,1.70
2023-04-24T05:20:00.667Z,1.87
2023-04-24T05:22:29.369Z,1.77
2023-04-24T05:24:57.570Z,1.83
2023-04-24T05:27:38.360Z,1.60
2023-04-24T05:30:11.877Z,2.30
2023-04-24T05:32:39.209Z,1.93
2023-04-24T05:35:07.439Z,2.07
2023-04-24T05:37:34.882Z,1.83
2023-04-24T05:40:03.098Z,2.13
2023-04-24T05:42:30.474Z,2.10
2023-04-24T05:44:58.149Z,2.20
2023-04-24T05:47:25.433Z,1.70
2023-04-24T05:49:54.513Z,2.17
2023-04-24T05:52:22.092Z,2.00
2023-04-24T05:54:50.652Z,2.03
2023-04-24T05:57:22.720Z,1.80
2023-04-24T05:59:56.268Z,1.83
2023-04-24T06:02:23.907Z,1.60
2023-04-24T06:04:52.477Z,1.60
2023-04-24T06:07:21.402Z,1.70
2023-04-24T06:09:48.640Z,1.27
2023-04-24T06:12:16.816Z,1.70
2023-04-24T06:15:01.422Z,2.00
2023-04-24T06:17:50.305Z,1.27
2023-04-24T06:20:19.010Z,1.23
2023-04-24T06:22:46.249Z,1.30
2023-04-24T06:25:13.446Z,1.10
2023-04-24T06:27:41.341Z,1.20
2023-04-24T06:30:09.512Z,1.20
2023-04-24T06:32:36.769Z,1.20
2023-04-24T06:35:04.189Z,1.13
2023-04-24T06:37:33.111Z,1.27
2023-04-24T06:40:00.462Z,1.00
2023-04-24T06:42:27.780Z,1.10
2023-04-24T06:44:56.654Z,1.13
2023-04-24T06:47:24.277Z,1.40
2023-04-24T06:49:53.448Z,1.13
2023-04-24T06:52:21.127Z,1.10
2023-04-24T06:54:48.551Z,1.20
2023-04-24T06:57:17.243Z,1.03
2023-04-24T06:59:45.113Z,0.73
2023-04-24T07:02:15.751Z,1.00
2023-04-24T07:04:43.106Z,1.00
2023-04-24T07:07:14.007Z,0.90
2023-04-24T07:09:45.428Z,0.83
2023-04-24T07:12:13.348Z,1.23
2023-04-24T07:14:40.941Z,0.70
2023-04-24T07:17:08.291Z,1.10
2023-04-24T07:19:38.945Z,1.27
2023-04-24T07:22:06.200Z,1.30
2023-04-24T07:24:33.741Z,0.80
2023-04-24T07:27:04.591Z,1.07
2023-04-24T07:29:31.856Z,1.07
2023-04-24T07:31:59.309Z,0.80
2023-04-24T07:34:27.186Z,1.00
2023-04-24T07:36:54.443Z,0.90
2023-04-24T07:39:21.809Z,0.90
2023-04-24T07:41:48.997Z,0.97
2023-04-24T07:44:16.236Z,0.80
2023-04-24T07:46:43.540Z,0.93
2023-04-24T07:49:13.574Z,1.33
2023-04-24T07:51:42.469Z,0.77
2023-04-24T07:54:10.612Z,1.00
2023-04-24T07:56:40.436Z,0.97
2023-04-24T07:59:07.772Z,0.80
2023-04-24T08:01:35.055Z,0.83
2023-04-24T08:04:02.559Z,0.70
2023-04-24T08:06:31.443Z,0.90
2023-04-24T08:08:59.430Z,0.77
2023-04-24T08:11:27.489Z,0.83
2023-04-24T08:13:55.896Z,0.80
2023-04-24T08:16:25.354Z,0.60
2023-04-24T08:18:52.915Z,0.90
2023-04-24T08:21:21.557Z,1.10
2023-04-24T08:23:49.162Z,0.80
2023-04-24T08:26:16.350Z,0.97
2023-04-24T08:28:44.109Z,0.90
2023-04-24T08:31:11.488Z,0.97
2023-04-24T08:33:38.730Z,1.07
2023-04-24T08:36:07.015Z,1.10
2023-04-24T08:38:36.878Z,0.90
2023-04-24T08:41:05.479Z,0.73
2023-04-24T08:43:35.333Z,1.00
2023-04-24T08:46:05.533Z,0.80
2023-04-24T08:48:34.484Z,0.80
2023-04-24T08:51:02.977Z,0.90
2023-04-24T08:53:30.798Z,1.10
2023-04-24T08:55:58.099Z,0.80
2023-04-24T08:58:28.753Z,1.00
2023-04-24T09:00:58.678Z,0.97
2023-04-24T09:03:26.324Z,0.93
2023-04-24T09:05:54.219Z,0.80
2023-04-24T09:08:21.898Z,0.87
2023-04-24T09:10:51.051Z,0.53
2023-04-24T09:13:19.392Z,0.70
2023-04-24T09:15:46.593Z,0.63
2023-04-24T09:18:13.832Z,0.80
2023-04-24T09:21:00.149Z,0.93
2023-04-24T09:23:28.209Z,0.87
2023-04-24T09:25:58.972Z,0.80
2023-04-24T09:28:31.752Z,1.00
2023-04-24T09:31:11.823Z,0.87
2023-04-24T09:33:39.240Z,0.70
2023-04-24T09:36:07.213Z,0.90
2023-04-24T09:38:38.241Z,0.60
2023-04-24T09:41:09.692Z,0.50
2023-04-24T09:43:37.197Z,0.50
2023-04-24T09:46:10.561Z,0.70
2023-04-24T09:48:39.030Z,0.60
2023-04-24T09:51:12.345Z,1.10
2023-04-24T09:53:43.000Z,0.60
2023-04-24T09:56:14.537Z,0.93
2023-04-24T09:58:42.129Z,0.80
2023-04-24T10:01:09.516Z,0.80
2023-04-24T10:03:37.122Z,0.93
2023-04-24T10:06:10.212Z,0.57
2023-04-24T10:08:38.711Z,0.93
2023-04-24T10:11:08.359Z,0.90
2023-04-24T10:13:36.189Z,0.80
2023-04-24T10:16:05.230Z,1.20
2023-04-24T10:18:33.998Z,0.90
2023-04-24T10:21:01.978Z,0.83
2023-04-24T10:23:29.958Z,0.90
2023-04-24T10:25:58.260Z,0.77
2023-04-24T10:28:26.146Z,1.10
2023-04-24T10:30:56.548Z,1.10
2023-04-24T10:33:24.692Z,0.70
2023-04-24T10:35:52.602Z,0.67
2023-04-24T10:38:25.213Z,0.90
2023-04-24T10:40:52.591Z,0.70
2023-04-24T10:43:20.494Z,0.70
2023-04-24T10:46:03.984Z,0.80
2023-04-24T10:48:31.459Z,0.60
2023-04-24T10:50:58.934Z,0.70
2023-04-24T10:53:28.927Z,1.00
2023-04-24T10:56:05.343Z,0.90
2023-04-24T10:58:41.167Z,0.70
2023-04-24T11:01:08.659Z,0.97
2023-04-24T11:03:37.452Z,0.83
2023-04-24T11:06:08.680Z,0.73
2023-04-24T11:08:50.112Z,1.10
2023-04-24T11:11:19.068Z,0.83
2023-04-24T11:13:56.009Z,0.90
2023-04-24T11:16:27.663Z,0.77
2023-04-24T11:19:01.969Z,0.83
2023-04-24T11:21:42.988Z,0.80
2023-04-24T11:24:29.882Z,0.83
2023-04-24T11:27:17.581Z,0.90
2023-04-24T11:30:01.805Z,1.00
2023-04-24T11:32:38.432Z,0.87
2023-04-24T11:35:10.533Z,1.07
2023-04-24T11:37:39.800Z,0.83
2023-04-24T11:40:08.697Z,0.90
2023-04-24T11:42:39.964Z,0.87
2023-04-24T11:45:11.409Z,0.90
2023-04-24T11:47:39.027Z,0.80
2023-04-24T11:50:08.158Z,0.80
2023-04-24T11:52:38.293Z,0.90
2023-04-24T11:55:06.090Z,0.80
2023-04-24T11:57:37.462Z,0.77
2023-04-24T12:00:07.059Z,1.00
2023-04-24T12:03:06.670Z,1.00
2023-04-24T12:05:35.862Z,0.80
2023-04-24T12:08:04.207Z,0.70
2023-04-24T12:10:32.103Z,0.70
2023-04-24T12:12:59.720Z,1.17
2023-04-24T12:15:27.244Z,0.77
2023-04-24T12:17:54.994Z,1.10
2023-04-24T12:20:29.596Z,0.83
2023-04-24T12:23:00.737Z,1.03
2023-04-24T12:25:31.825Z,0.93
2023-04-24T12:28:05.560Z,0.93
2023-04-24T12:30:35.231Z,0.80
2023-04-24T12:33:03.816Z,0.80
2023-04-24T12:35:36.758Z,0.90
2023-04-24T12:38:09.010Z,0.90
2023-04-24T12:40:36.269Z,1.10
2023-04-24T12:43:15.669Z,0.90
2023-04-24T12:45:45.155Z,0.80
2023-04-24T12:48:12.794Z,0.70
2023-04-24T12:50:40.326Z,1.00
2023-04-24T12:53:08.054Z,1.10
2023-04-24T12:55:35.372Z,1.07
2023-04-24T12:58:04.000Z,0.97
2023-04-24T13:00:31.651Z,1.00
2023-04-24T13:02:59.149Z,1.03
2023-04-24T13:05:26.856Z,1.00
2023-04-24T13:07:54.172Z,1.07
2023-04-24T13:10:21.559Z,1.00
2023-04-24T13:12:48.753Z,1.10
2023-04-24T13:15:16.340Z,1.17
2023-04-24T13:17:43.913Z,1.03
2023-04-24T13:20:11.403Z,1.20
2023-04-24T13:22:38.656Z,0.97
2023-04-24T13:25:07.176Z,1.20
2023-04-24T13:27:34.732Z,1.00
2023-04-24T13:30:02.290Z,1.00
2023-04-24T13:32:29.841Z,1.20
2023-04-24T13:34:58.290Z,1.10
2023-04-24T13:37:25.550Z,1.13
2023-04-24T13:39:52.808Z,1.13
2023-04-24T13:42:20.965Z,1.10
2023-04-24T13:44:48.357Z,1.20
2023-04-24T13:47:15.667Z,0.90
2023-04-24T13:49:43.085Z,0.90
2023-04-24T13:52:11.371Z,1.50
2023-04-24T13:54:38.643Z,1.00
2023-04-24T13:57:05.849Z,1.10
2023-04-24T13:59:33.044Z,1.30
2023-04-24T14:02:00.429Z,1.10
2023-04-24T14:04:27.737Z,1.00
2023-04-24T14:06:55.396Z,1.10
2023-04-24T14:09:22.579Z,0.97
2023-04-24T14:11:49.868Z,1.20
2023-04-24T14:14:17.193Z,1.30
2023-04-24T14:16:44.570Z,1.20
2023-04-24T14:19:11.924Z,1.20
2023-04-24T14:21:39.176Z,1.03
2023-04-24T14:24:06.565Z,1.27
2023-04-24T14:26:34.195Z,1.30
2023-04-24T14:29:11.711Z,1.20
2023-04-24T14:31:41.992Z,1.07
2023-04-24T14:34:11.347Z,1.27
2023-04-24T14:36:38.918Z,1.00
2023-04-24T14:39:08.782Z,1.27
2023-04-24T14:41:40.230Z,1.20
2023-04-24T14:44:07.660Z,1.20
2023-04-24T14:46:35.033Z,1.10
2023-04-24T14:49:02.536Z,1.20
2023-04-24T14:51:29.990Z,1.30
2023-04-24T14:53:57.977Z,1.30
2023-04-24T14:56:25.779Z,1.30
2023-04-24T14:58:54.191Z,1.10
2023-04-24T15:01:21.743Z,1.00
2023-04-24T15:03:49.169Z,1.60
2023-04-24T15:06:16.928Z,1.17
2023-04-24T15:08:44.214Z,1.60
2023-04-24T15:11:12.250Z,1.00
2023-04-24T15:13:39.622Z,1.30
2023-04-24T15:16:07.084Z,1.33
2023-04-24T15:18:34.557Z,1.20
2023-04-24T15:21:01.746Z,1.20
2023-04-24T15:23:32.272Z,1.13
2023-04-24T15:25:59.613Z,1.20
2023-04-24T15:28:26.818Z,1.00
2023-04-24T15:30:54.148Z,1.20
2023-04-24T15:33:21.788Z,1.20
2023-04-24T15:35:49.773Z,1.10
2023-04-24T15:38:19.104Z,1.20
2023-04-24T15:40:46.349Z,1.27
2023-04-24T15:43:14.702Z,1.23
2023-04-24T15:45:41.924Z,1.20
2023-04-24T15:48:09.172Z,1.40
2023-04-24T15:50:36.935Z,1.20
2023-04-24T15:53:04.260Z,1.20
2023-04-24T15:55:31.749Z,1.20
2023-04-24T15:57:59.035Z,1.40
2023-04-24T16:00:33.930Z,1.30
2023-04-24T16:03:01.967Z,1.23
2023-04-24T16:05:29.699Z,1.70
2023-04-24T16:07:57.505Z,1.27
2023-04-24T16:10:24.712Z,1.40
2023-04-24T16:12:53.428Z,1.43
2023-04-24T16:15:21.524Z,1.20
2023-04-24T16:17:49.366Z,1.87
2023-04-24T16:20:16.749Z,1.90
2023-04-24T16:22:44.084Z,1.33
2023-04-24T16:25:11.651Z,1.43
2023-04-24T16:27:39.241Z,1.07
2023-04-24T16:30:08.177Z,1.40
2023-04-24T16:32:35.506Z,1.10
2023-04-24T16:35:02.804Z,1.20
2023-04-24T16:37:30.831Z,1.37
2023-04-24T16:39:58.456Z,1.33
2023-04-24T16:42:26.476Z,1.40
2023-04-24T16:44:53.920Z,1.23
2023-04-24T16:47:21.298Z,1.40
2023-04-24T16:49:49.997Z,1.10
2023-04-24T16:52:17.599Z,1.70
2023-04-24T16:54:44.937Z,1.50
2023-04-24T16:57:13.046Z,1.30
2023-04-24T16:59:40.372Z,1.27
2023-04-24T17:02:08.355Z,1.50
2023-04-24T17:04:36.038Z,1.20
2023-04-24T17:07:03.607Z,1.50
2023-04-24T17:09:31.180Z,1.50
2023-04-24T17:11:59.657Z,1.33
2023-04-24T17:14:26.873Z,1.30
2023-04-24T17:16:54.262Z,1.40
2023-04-24T17:19:22.016Z,1.30
2023-04-24T17:21:49.282Z,1.10
2023-04-24T17:24:16.546Z,1.17
2023-04-24T17:26:43.742Z,1.10
2023-04-24T17:29:12.514Z,1.40
2023-04-24T17:31:41.390Z,1.17
2023-04-24T17:34:10.180Z,1.33
2023-04-24T17:36:38.448Z,1.20
2023-04-24T17:39:05.842Z,1.07
2023-04-24T17:41:33.034Z,1.30
2023-04-24T17:44:00.289Z,3.63
2023-04-24T17:46:27.633Z,1.87
2023-04-24T17:48:55.177Z,1.33
2023-04-24T17:51:23.069Z,1.20
2023-04-24T17:53:52.269Z,1.13
2023-04-24T17:56:19.505Z,1.40
2023-04-24T17:58:47.082Z,1.03
2023-04-24T18:01:14.669Z,0.90
2023-04-24T18:03:43.822Z,1.00
2023-04-24T18:06:11.311Z,1.03
2023-04-24T18:08:38.801Z,0.80
2023-04-24T18:11:06.048Z,0.90
2023-04-24T18:13:33.272Z,0.87
2023-04-24T18:16:00.610Z,0.93
2023-04-24T18:18:28.055Z,0.80
2023-04-24T18:20:56.569Z,1.00
2023-04-24T18:23:23.787Z,0.60
2023-04-24T18:25:51.040Z,0.90
2023-04-24T18:28:18.318Z,1.00
2023-04-24T18:30:45.676Z,0.90
2023-04-24T18:33:12.958Z,1.20
2023-04-24T18:35:40.855Z,0.90
2023-04-24T18:38:08.353Z,1.07
2023-04-24T18:40:35.993Z,0.77
2023-04-24T18:43:03.361Z,0.90
2023-04-24T18:45:30.659Z,0.80
2023-04-24T18:47:58.011Z,1.03
2023-04-24T18:50:27.580Z,0.80
2023-04-24T18:52:54.928Z,0.93
2023-04-24T18:55:22.146Z,0.90
2023-04-24T18:57:49.337Z,0.97
2023-04-24T19:00:16.657Z,1.10
2023-04-24T19:02:44.195Z,0.90
2023-04-24T19:05:12.126Z,1.10
2023-04-24T19:07:39.955Z,1.10
2023-04-24T19:10:07.513Z,0.97
2023-04-24T19:12:34.808Z,1.20
2023-04-24T19:15:02.544Z,0.90
2023-04-24T19:17:31.720Z,0.87
2023-04-24T19:19:58.924Z,1.23
2023-04-24T19:22:26.371Z,1.00
2023-04-24T19:24:54.330Z,1.07
2023-04-24T19:27:21.587Z,1.00
2023-04-24T19:29:49.102Z,0.87
2023-04-24T19:32:16.775Z,0.90
2023-04-24T19:34:44.080Z,1.23
2023-04-24T19:37:11.298Z,1.10
2023-04-24T19:39:38.542Z,1.10
2023-04-24T19:42:07.570Z,1.00
2023-04-24T19:44:36.178Z,1.10
2023-04-24T19:47:03.781Z,1.40
2023-04-24T19:49:31.294Z,1.10
2023-04-24T19:51:58.563Z,1.40
2023-04-24T19:54:26.357Z,2.60
2023-04-24T19:56:53.512Z,4.33
2023-04-24T19:59:21.106Z,1.30
2023-04-24T20:01:48.585Z,1.20
2023-04-24T20:04:15.975Z,1.20
2023-04-24T20:06:43.414Z,1.63
2023-04-24T20:09:10.836Z,1.30
2023-04-24T20:11:38.078Z,1.10
2023-04-24T20:14:05.339Z,1.53
2023-04-24T20:16:32.592Z,1.50
2023-04-24T20:19:00.032Z,1.50
2023-04-24T20:21:27.824Z,1.30
2023-04-24T20:23:55.256Z,1.30
2023-04-24T20:26:23.802Z,1.47
2023-04-24T20:28:51.292Z,1.77
2023-04-24T20:31:19.909Z,1.80
2023-04-24T20:33:47.186Z,1.53
2023-04-24T20:36:15.218Z,1.77
2023-04-24T20:38:47.092Z,1.63
2023-04-24T20:41:16.112Z,1.40
2023-04-24T20:43:43.362Z,1.70
2023-04-24T20:46:10.978Z,1.50
2023-04-24T20:48:38.229Z,1.80
2023-04-24T20:51:05.509Z,1.67
2023-04-24T20:53:32.896Z,1.83
2023-04-24T20:56:00.639Z,1.67
2023-04-24T20:58:27.913Z,1.77
2023-04-24T21:00:55.328Z,1.70
2023-04-24T21:03:22.533Z,2.00
2023-04-24T21:05:50.000Z,1.90
2023-04-24T21:08:17.341Z,2.00
2023-04-24T21:10:44.557Z,1.87
2023-04-24T21:13:11.736Z,1.90
2023-04-24T21:15:39.054Z,2.10
2023-04-24T21:18:06.451Z,1.87
2023-04-24T21:20:33.710Z,2.10
2023-04-24T21:23:00.971Z,1.90
2023-04-24T21:25:28.724Z,2.03
2023-04-24T21:27:56.826Z,1.90
2023-04-24T21:30:24.120Z,1.80
2023-04-24T21:32:52.292Z,2.03
2023-04-24T21:35:19.720Z,1.90
2023-04-24T21:37:47.045Z,1.80
2023-04-24T21:40:15.813Z,2.23
2023-04-24T21:42:43.410Z,2.00
2023-04-24T21:45:10.990Z,1.80
2023-04-24T21:47:38.258Z,2.00
2023-04-24T21:50:05.814Z,2.07
2023-04-24T21:52:33.024Z,1.93
2023-04-24T21:55:00.392Z,2.07
2023-04-24T21:57:28.464Z,1.90
2023-04-24T21:59:57.186Z,2.20
2023-04-24T22:02:24.623Z,1.97
2023-04-24T22:04:56.405Z,2.10
2023-04-24T22:07:24.012Z,2.30
2023-04-24T22:09:51.274Z,2.10
2023-04-24T22:12:18.677Z,2.77
2023-04-24T22:14:47.271Z,2.30
2023-04-24T22:17:17.680Z,2.10
2023-04-24T22:19:44.950Z,2.00
2023-04-24T22:22:12.130Z,2.17
2023-04-24T22:24:40.480Z,2.00
2023-04-24T22:27:07.744Z,2.37
2023-04-24T22:29:35.058Z,2.57
2023-04-24T22:32:02.829Z,2.10
2023-04-24T22:34:30.363Z,2.30
2023-04-24T22:36:57.724Z,2.20
2023-04-24T22:39:25.530Z,2.10
2023-04-24T22:41:53.090Z,2.27
2023-04-24T22:44:21.022Z,1.97
2023-04-24T22:46:48.472Z,1.90
2023-04-24T22:49:16.283Z,2.10
2023-04-24T22:51:44.269Z,2.53
2023-04-24T22:54:11.599Z,2.20
2023-04-24T22:56:38.943Z,2.03
2023-04-24T22:59:06.901Z,2.00
2023-04-24T23:01:33.833Z,2.40
2023-04-24T23:04:00.667Z,2.00
2023-04-24T23:06:28.180Z,2.17
2023-04-24T23:08:55.043Z,2.10
2023-04-24T23:11:21.987Z,2.20
2023-04-24T23:13:49.789Z,2.00
2023-04-24T23:16:16.905Z,1.80
2023-04-24T23:18:43.794Z,2.30
2023-04-24T23:21:10.616Z,2.10
2023-04-24T23:23:38.141Z,1.83
2023-04-24T23:26:05.113Z,2.13
2023-04-24T23:28:32.025Z,2.27
2023-04-24T23:30:58.817Z,2.43
2023-04-24T23:33:26.059Z,1.90
2023-04-24T23:35:53.207Z,2.20
2023-04-24T23:38:20.029Z,2.03
2023-04-24T23:40:46.900Z,2.30
2023-04-24T23:43:13.718Z,2.60
2023-04-24T23:45:40.640Z,2.47
2023-04-24T23:48:07.755Z,2.23
2023-04-24T23:50:34.796Z,1.80
2023-04-24T23:53:01.768Z,2.17
2023-04-24T23:55:28.783Z,2.67
2023-04-24T23:57:55.533Z,2.50
